Time;durP1;ratioP1;P1;durP2;ratioP2;P2;SDS_P1;SDS_P2;PMS_P1;PMS_P2;Temp;Humidity;BMP_temperature;BMP_pressure;BME280_temperature;BME280_humidity;BME280_pressure;Samples;Min_cycle;Max_cycle;Signal;HPM_P1;HPM_P2
2022/07/03 00:02:20;;;;;;;4.90;2.13;;;;;;;18.86;65.66;98284.25;5073300;28;20204;-67
2022/07/03 00:04:47;;;;;;;3.53;2.20;;;;;;;18.89;65.83;98288.28;5072992;28;20209;-67
2022/07/03 00:07:13;;;;;;;2.20;1.97;;;;;;;18.86;64.82;98278.84;5073277;28;20291;-67
2022/07/03 00:09:40;;;;;;;2.77;1.90;;;;;;;18.89;65.03;98286.41;5072860;28;20228;-67
2022/07/03 00:12:06;;;;;;;2.23;2.03;;;;;;;18.75;67.12;98287.16;5072919;28;20767;-67
2022/07/03 00:14:33;;;;;;;2.40;2.20;;;;;;;18.68;67.61;98287.41;5073189;28;20291;-67
2022/07/03 00:16:59;;;;;;;4.67;1.90;;;;;;;18.51;68.49;98286.81;5072782;28;20224;-68
2022/07/03 00:19:26;;;;;;;3.50;2.20;;;;;;;18.38;69.26;98290.03;5072739;28;20236;-67
2022/07/03 00:22:04;;;;;;;2.93;2.20;;;;;;;18.34;70.22;98283.53;5072852;28;20639;-67
2022/07/03 00:24:38;;;;;;;2.57;2.20;;;;;;;18.32;70.73;98291.03;5073121;28;20196;-67
2022/07/03 00:27:09;;;;;;;3.87;2.30;;;;;;;18.16;71.33;98296.59;5073123;28;20195;-67
2022/07/03 00:29:39;;;;;;;2.57;2.37;;;;;;;18.12;73.15;98290.09;5076834;28;20224;-67
2022/07/03 00:32:09;;;;;;;2.93;2.63;;;;;;;18.05;72.12;98289.53;5077044;28;20283;-67
2022/07/03 00:34:36;;;;;;;2.87;2.47;;;;;;;17.99;72.48;98288.69;5076857;28;20205;-67
2022/07/03 00:37:06;;;;;;;5.67;3.10;;;;;;;18.03;72.75;98288.97;5076427;28;20217;-67
2022/07/03 00:39:33;;;;;;;4.13;2.63;;;;;;;17.99;73.33;98293.25;5075244;28;20722;-67
2022/07/03 00:42:04;;;;;;;2.87;2.20;;;;;;;17.98;73.40;98284.41;5076399;28;20200;-67
2022/07/03 00:44:34;;;;;;;2.80;2.33;;;;;;;17.90;73.71;98290.25;5076341;28;20758;-67
2022/07/03 00:47:03;;;;;;;2.77;2.20;;;;;;;17.95;74.28;98276.84;5076701;28;20386;-67
2022/07/03 00:49:32;;;;;;;3.47;2.40;;;;;;;17.81;74.37;98282.94;5076529;28;20307;-67
2022/07/03 00:52:03;;;;;;;3.70;2.47;;;;;;;17.84;74.39;98291.31;5076496;28;20296;-67
2022/07/03 00:54:33;;;;;;;2.83;2.33;;;;;;;17.85;75.94;98292.91;5076536;28;20192;-67
2022/07/03 00:57:01;;;;;;;3.17;2.77;;;;;;;17.85;75.10;98289.41;5076402;28;20219;-67
2022/07/03 00:59:28;;;;;;;2.53;2.33;;;;;;;17.82;75.16;98296.13;5076364;28;20236;-70
2022/07/03 01:02:02;;;;;;;5.87;2.57;;;;;;;17.80;74.98;98287.50;5076350;28;20295;-70
2022/07/03 01:05:09;;;;;;;3.73;2.90;;;;;;;17.68;75.54;98289.56;5076127;28;20184;-67
2022/07/03 01:07:42;;;;;;;2.63;2.40;;;;;;;17.70;76.65;98287.44;5075936;28;20191;-67
2022/07/03 01:10:18;;;;;;;3.10;2.40;;;;;;;17.71;75.98;98294.44;5075856;28;20590;-70
2022/07/03 01:12:50;;;;;;;3.83;2.73;;;;;;;17.75;76.91;98295.56;5074607;28;20641;-70
2022/07/03 01:15:39;;;;;;;3.17;2.63;;;;;;;17.66;76.41;98296.28;5076211;28;20195;-69
2022/07/03 01:18:20;;;;;;;3.87;2.07;;;;;;;17.67;76.42;98289.81;5075853;28;20228;-69
2022/07/03 01:20:54;;;;;;;2.90;2.40;;;;;;;17.73;76.76;98292.28;5076116;28;20279;-70
2022/07/03 01:23:49;;;;;;;4.40;2.07;;;;;;;17.67;75.81;98289.81;5076001;28;20189;-67
2022/07/03 01:26:16;;;;;;;3.93;2.60;;;;;;;17.64;76.99;98287.66;5076016;28;20302;-67
2022/07/03 01:28:46;;;;;;;7.17;2.60;;;;;;;17.68;78.32;98292.25;5076139;28;20307;-67
2022/07/03 01:31:20;;;;;;;2.83;2.17;;;;;;;17.68;78.57;98280.69;5075816;28;20240;-68
2022/07/03 01:33:50;;;;;;;3.20;2.30;;;;;;;17.67;77.96;98277.19;5075874;28;20193;-67
2022/07/03 01:36:22;;;;;;;2.57;2.27;;;;;;;17.70;77.68;98284.75;5074515;28;20276;-67
2022/07/03 01:38:50;;;;;;;2.67;2.00;;;;;;;17.70;77.94;98284.75;5074733;28;20228;-67
2022/07/03 01:41:17;;;;;;;2.77;2.33;;;;;;;17.71;78.05;98278.31;5075319;28;20205;-68
2022/07/03 01:43:56;;;;;;;2.97;2.20;;;;;;;17.62;78.34;98279.03;5075571;28;20299;-67
2022/07/03 01:46:28;;;;;;;4.90;2.10;;;;;;;17.64;79.43;98279.59;5075309;28;20227;-68
2022/07/03 01:48:55;;;;;;;3.20;2.27;;;;;;;17.57;78.91;98277.13;5075456;28;20220;-68
2022/07/03 01:51:24;;;;;;;5.73;2.50;;;;;;;17.51;79.58;98271.97;5074914;28;20649;-67
2022/07/03 01:53:52;;;;;;;5.40;2.20;;;;;;;17.47;79.72;98277.03;5075381;28;20204;-67
2022/07/03 01:56:21;;;;;;;2.90;2.17;;;;;;;17.36;80.33;98285.25;5075238;28;20613;-68
2022/07/03 01:58:47;;;;;;;3.07;2.37;;;;;;;17.28;80.38;98280.38;5074996;28;20258;-70
2022/07/03 02:01:20;;;;;;;4.60;2.40;;;;;;;17.27;81.17;98274.16;5075292;28;20291;-70
2022/07/03 02:03:56;;;;;;;5.00;2.70;;;;;;;17.28;81.03;98281.16;5075244;28;20285;-70
2022/07/03 02:06:32;;;;;;;4.60;2.50;;;;;;;17.28;80.22;98275.78;5074900;28;20546;-70
2022/07/03 02:09:06;;;;;;;2.60;2.40;;;;;;;17.27;80.80;98270.66;5074782;28;20590;-70
2022/07/03 02:11:41;;;;;;;2.43;2.23;;;;;;;17.26;80.40;98266.34;5075140;28;20203;-70
2022/07/03 02:14:15;;;;;;;2.33;2.13;;;;;;;17.26;81.94;98274.41;5075121;28;20192;-70
2022/07/03 02:17:12;;;;;;;3.13;2.57;;;;;;;17.20;83.79;98270.88;5074910;28;20204;-70
2022/07/03 02:19:57;;;;;;;3.10;2.27;;;;;;;17.23;83.01;98274.94;5074504;28;20250;-70
2022/07/03 02:22:37;;;;;;;2.83;2.10;;;;;;;17.12;81.69;98274.03;5074901;28;20280;-70
2022/07/03 02:25:32;;;;;;;2.53;2.27;;;;;;;17.14;82.38;98274.59;5074863;28;20189;-70
2022/07/03 02:28:30;;;;;;;2.30;2.10;;;;;;;17.06;82.85;98268.88;5073202;28;20201;-70
2022/07/03 02:31:02;;;;;;;3.13;2.07;;;;;;;17.05;83.60;98265.38;5074389;28;20630;-70
2022/07/03 02:33:31;;;;;;;2.57;2.13;;;;;;;17.02;83.87;98271.28;5074349;28;20285;-70
2022/07/03 02:35:58;;;;;;;3.73;2.40;;;;;;;16.93;83.45;98270.09;5074422;28;20295;-70
2022/07/03 02:38:26;;;;;;;4.30;2.20;;;;;;;16.95;83.25;98272.50;5074340;28;20598;-70
2022/07/03 02:40:58;;;;;;;4.03;2.13;;;;;;;16.93;84.13;98277.34;5074477;28;20215;-70
2022/07/03 02:43:52;;;;;;;3.90;2.20;;;;;;;16.92;83.72;98273.84;5074508;28;20197;-70
2022/07/03 02:49:44;;;;;;;2.27;2.07;;;;;;;16.87;84.35;98276.47;5073890;28;20583;-70
2022/07/03 02:52:21;;;;;;;3.87;1.97;;;;;;;16.81;84.11;98273.97;5045368;28;20208;-70
2022/07/03 02:54:48;;;;;;;3.87;2.20;;;;;;;16.79;84.46;98271.53;5074340;28;20188;-70
2022/07/03 02:57:19;;;;;;;2.57;2.23;;;;;;;16.79;85.11;98273.44;5074040;28;20204;-70
2022/07/03 02:59:55;;;;;;;1.90;1.80;;;;;;;16.81;85.65;98277.50;5074064;28;20227;-70
2022/07/03 03:02:55;;;;;;;2.20;2.00;;;;;;;16.81;85.00;98280.19;5074182;28;20188;-70
2022/07/03 03:05:31;;;;;;;2.37;2.17;;;;;;;16.81;85.02;98280.19;5072689;28;20215;-70
2022/07/03 03:08:01;;;;;;;2.17;1.97;;;;;;;16.79;85.38;98284.19;5074008;28;20271;-70
2022/07/03 03:10:27;;;;;;;5.03;1.80;;;;;;;16.76;85.48;98279.31;5073656;28;20299;-70
2022/07/03 03:13:03;;;;;;;2.20;1.80;;;;;;;16.69;86.42;98290.25;5073395;28;20295;-70
2022/07/03 03:15:31;;;;;;;2.20;2.00;;;;;;;16.78;86.31;98285.25;5073599;28;20639;-70
2022/07/03 03:18:05;;;;;;;3.80;1.90;;;;;;;16.74;86.46;98284.13;5073582;28;20274;-70
2022/07/03 03:20:36;;;;;;;2.13;1.93;;;;;;;16.72;86.75;98289.75;5073837;28;20188;-70
2022/07/03 03:23:36;;;;;;;3.00;2.13;;;;;;;16.64;86.32;98298.25;5073746;28;20296;-70
2022/07/03 03:26:03;;;;;;;2.27;2.07;;;;;;;16.67;86.72;98287.00;5073471;28;20746;-70
2022/07/03 03:28:30;;;;;;;2.57;2.00;;;;;;;16.61;87.39;98293.38;5073638;28;20221;-70
2022/07/03 03:30:56;;;;;;;3.27;2.03;;;;;;;16.81;85.41;98301.66;5073551;28;20300;-70
2022/07/03 03:33:23;;;;;;;4.43;2.30;;;;;;;16.79;85.45;98298.41;5073353;28;20208;-70
2022/07/03 03:35:50;;;;;;;2.87;2.30;;;;;;;16.89;84.79;98293.16;5073647;28;20295;-69
2022/07/03 03:38:17;;;;;;;3.07;2.30;;;;;;;16.91;85.65;98303.63;5073331;28;20254;-67
2022/07/03 03:40:44;;;;;;;3.73;2.50;;;;;;;16.89;85.53;98300.41;5074388;28;20201;-70
2022/07/03 03:43:11;;;;;;;5.60;2.03;;;;;;;16.86;86.45;98309.78;5073400;28;20294;-70
2022/07/03 03:45:37;;;;;;;2.93;2.27;;;;;;;16.83;86.74;98301.41;5073434;28;20230;-70
2022/07/03 03:48:04;;;;;;;2.17;2.00;;;;;;;16.79;87.90;98301.09;5073340;28;20232;-70
2022/07/03 03:50:31;;;;;;;3.57;2.07;;;;;;;16.72;87.87;98302.34;5073454;28;20208;-70
2022/07/03 03:53:00;;;;;;;3.03;2.10;;;;;;;16.66;88.21;98304.19;5073117;28;20291;-70
2022/07/03 03:55:27;;;;;;;3.50;2.40;;;;;;;16.63;88.51;98309.22;5073438;28;20216;-70
2022/07/03 03:57:53;;;;;;;3.50;2.07;;;;;;;16.58;88.89;98314.53;5073342;28;20228;-70
2022/07/03 04:00:19;;;;;;;3.30;2.13;;;;;;;16.58;89.63;98306.50;5073382;28;20204;-70
2022/07/03 04:02:46;;;;;;;4.57;2.23;;;;;;;16.59;90.31;98310.78;5074069;28;20295;-70
2022/07/03 04:05:12;;;;;;;3.13;2.13;;;;;;;16.65;89.69;98305.22;5077445;28;20218;-70
2022/07/03 04:07:39;;;;;;;4.20;2.10;;;;;;;16.72;89.90;98313.91;5077042;28;20291;-70
2022/07/03 04:10:06;;;;;;;4.07;2.30;;;;;;;16.64;89.62;98314.34;5077980;28;20231;-71
2022/07/03 04:12:32;;;;;;;3.17;2.00;;;;;;;16.68;89.91;98304.72;5077191;28;20306;-70
2022/07/03 04:14:59;;;;;;;2.30;2.10;;;;;;;16.72;90.21;98313.91;5077280;28;20211;-70
2022/07/03 04:17:26;;;;;;;3.50;2.03;;;;;;;16.73;89.74;98304.78;5077167;28;20219;-70
2022/07/03 04:19:53;;;;;;;3.63;2.00;;;;;;;16.81;89.77;98300.84;5076797;28;20236;-70
2022/07/03 04:22:19;;;;;;;2.00;1.90;;;;;;;16.82;89.84;98308.66;5077131;28;20201;-70
2022/07/03 04:24:45;;;;;;;5.07;2.17;;;;;;;16.88;89.26;98301.47;5077108;28;20290;-70
2022/07/03 04:27:12;;;;;;;3.67;1.90;;;;;;;16.90;89.26;98313.56;5077620;28;20291;-70
2022/07/03 04:29:38;;;;;;;4.43;2.00;;;;;;;16.96;88.87;98307.19;5076939;28;20587;-70
2022/07/03 04:32:05;;;;;;;3.27;1.97;;;;;;;16.97;89.91;98319.53;5076726;28;20626;-70
2022/07/03 04:34:32;;;;;;;2.33;2.00;;;;;;;17.02;89.42;98316.94;5076615;28;20653;-70
2022/07/03 04:36:58;;;;;;;3.33;1.90;;;;;;;17.14;88.63;98325.63;5076550;28;20296;-70
2022/07/03 04:39:24;;;;;;;2.10;1.90;;;;;;;17.20;88.44;98332.66;5076588;28;20311;-70
2022/07/03 04:41:51;;;;;;;2.50;2.00;;;;;;;17.27;87.70;98341.34;5076762;28;20210;-69
2022/07/03 04:44:17;;;;;;;3.40;2.07;;;;;;;17.36;86.83;98337.13;5076868;28;20212;-70
2022/07/03 04:46:44;;;;;;;4.50;2.00;;;;;;;17.44;85.91;98334.00;5076648;28;20291;-70
2022/07/03 04:49:10;;;;;;;2.73;2.07;;;;;;;17.50;85.18;98341.03;5076550;28;20227;-70
2022/07/03 04:51:36;;;;;;;2.07;1.87;;;;;;;17.57;84.73;98346.22;5077241;28;20207;-70
2022/07/03 04:54:03;;;;;;;2.33;1.83;;;;;;;17.63;83.52;98337.94;5076564;28;20308;-70
2022/07/03 04:56:30;;;;;;;2.47;1.77;;;;;;;17.69;83.41;98344.97;5077226;28;20295;-70
2022/07/03 04:58:56;;;;;;;1.97;1.80;;;;;;;17.76;83.08;98339.38;5076069;28;20654;-67
2022/07/03 05:01:23;;;;;;;1.80;1.70;;;;;;;17.83;82.04;98346.16;5076911;28;20304;-68
2022/07/03 05:03:49;;;;;;;2.60;1.67;;;;;;;17.96;81.15;98343.00;5076343;28;20300;-68
2022/07/03 05:06:15;;;;;;;2.17;1.80;;;;;;;18.03;81.47;98342.78;5076233;28;20226;-68
2022/07/03 05:08:42;;;;;;;2.17;1.70;;;;;;;18.14;79.84;98344.50;5076169;28;20665;-70
2022/07/03 05:11:08;;;;;;;2.50;1.90;;;;;;;18.32;79.05;98341.38;5076205;28;20208;-71
2022/07/03 05:13:34;;;;;;;2.50;1.80;;;;;;;18.62;77.76;98353.13;5075458;28;20295;-70
2022/07/03 05:16:01;;;;;;;2.50;1.73;;;;;;;18.87;75.94;98342.44;5076193;28;20291;-70
2022/07/03 05:18:27;;;;;;;4.03;1.77;;;;;;;19.04;76.75;98343.03;5075760;28;20233;-70
2022/07/03 05:20:54;;;;;;;2.37;1.80;;;;;;;19.48;73.86;98344.22;5076164;28;20205;-67
2022/07/03 05:23:20;;;;;;;2.57;1.70;;;;;;;20.23;70.85;98343.38;5075979;28;20204;-68
2022/07/03 05:25:46;;;;;;;3.67;1.80;;;;;;;20.80;69.17;98345.63;5075681;28;20295;-68
2022/07/03 05:28:13;;;;;;;1.73;1.50;;;;;;;20.99;68.17;98341.22;5075751;28;20225;-68
2022/07/03 05:30:39;;;;;;;2.23;1.87;;;;;;;20.90;67.33;98342.88;5076355;28;20211;-67
2022/07/03 05:33:05;;;;;;;2.17;1.73;;;;;;;20.81;67.12;98345.34;5075301;28;20211;-68
2022/07/03 05:35:32;;;;;;;3.13;1.90;;;;;;;20.56;68.77;98341.91;5075709;28;20291;-70
2022/07/03 05:37:59;;;;;;;3.47;1.83;;;;;;;20.57;68.65;98343.56;5075435;28;20294;-68
2022/07/03 05:40:25;;;;;;;2.40;1.93;;;;;;;20.30;70.19;98352.00;5075185;28;20562;-68
2022/07/03 05:42:53;;;;;;;2.07;1.87;;;;;;;20.20;70.18;98353.91;5075561;28;20215;-68
2022/07/03 05:45:19;;;;;;;3.50;2.00;;;;;;;20.35;71.10;98351.19;5075068;28;20205;-68
2022/07/03 05:47:46;;;;;;;1.80;1.70;;;;;;;20.29;70.52;98350.38;5075339;28;20295;-68
2022/07/03 05:50:12;;;;;;;3.63;2.00;;;;;;;20.31;70.48;98350.09;5075461;28;20211;-68
2022/07/03 05:52:39;;;;;;;2.87;2.00;;;;;;;20.32;71.69;98351.72;5075489;28;20295;-68
2022/07/03 05:55:06;;;;;;;2.00;1.87;;;;;;;20.50;70.82;98346.56;5075132;28;20215;-68
2022/07/03 05:57:32;;;;;;;2.03;1.80;;;;;;;20.67;68.93;98346.22;5075409;28;20201;-68
2022/07/03 05:59:59;;;;;;;2.00;1.77;;;;;;;20.66;69.05;98344.59;5075234;28;20236;-68
2022/07/03 06:02:25;;;;;;;2.73;1.60;;;;;;;20.70;69.27;98345.66;5075278;28;20291;-68
2022/07/03 06:04:51;;;;;;;1.90;1.80;;;;;;;20.63;69.85;98340.56;5075263;28;20287;-68
2022/07/03 06:07:18;;;;;;;1.97;1.87;;;;;;;20.76;68.44;98347.25;5074742;28;20234;-68
2022/07/03 06:09:44;;;;;;;2.00;1.73;;;;;;;20.89;67.75;98349.38;5074885;28;20223;-68
2022/07/03 06:12:11;;;;;;;1.90;1.80;;;;;;;20.89;68.73;98344.75;5075024;28;20204;-68
2022/07/03 06:14:38;;;;;;;1.70;1.60;;;;;;;20.95;69.95;98348.28;5074945;28;20201;-68
2022/07/03 06:17:04;;;;;;;2.67;2.07;;;;;;;20.76;69.16;98345.34;5074563;28;20215;-69
2022/07/03 06:19:31;;;;;;;2.40;1.73;;;;;;;20.67;69.61;98340.81;5074511;28;20225;-68
2022/07/03 06:21:57;;;;;;;1.87;1.77;;;;;;;20.61;69.52;98340.00;5074851;28;20227;-68
2022/07/03 06:24:24;;;;;;;1.90;1.80;;;;;;;20.67;69.92;98341.59;5074415;28;20300;-69
2022/07/03 06:26:50;;;;;;;1.87;1.77;;;;;;;20.73;69.28;98345.09;5074082;28;20239;-68
2022/07/03 06:29:17;;;;;;;2.70;1.60;;;;;;;20.74;69.37;98341.31;5074344;28;20587;-68
2022/07/03 06:31:43;;;;;;;2.03;1.80;;;;;;;20.74;68.93;98344.00;5074686;28;20291;-68
2022/07/03 06:34:09;;;;;;;2.93;1.90;;;;;;;20.78;69.43;98340.50;5074566;28;20737;-68
2022/07/03 06:36:36;;;;;;;3.20;2.03;;;;;;;21.00;69.02;98345.53;5074454;28;20208;-68
2022/07/03 06:39:02;;;;;;;2.30;1.90;;;;;;;21.08;68.59;98347.66;5074062;28;20721;-68
2022/07/03 06:41:29;;;;;;;4.17;1.97;;;;;;;21.11;68.79;98342.50;5074452;28;20299;-68
2022/07/03 06:43:55;;;;;;;3.23;1.70;;;;;;;21.17;68.79;98354.94;5074270;28;20228;-68
2022/07/03 06:46:21;;;;;;;3.83;1.80;;;;;;;21.37;68.60;98343.97;5074540;28;20295;-68
2022/07/03 06:48:48;;;;;;;2.13;1.70;;;;;;;21.34;68.45;98343.72;5074075;28;20797;-68
2022/07/03 06:51:14;;;;;;;2.43;2.13;;;;;;;21.41;67.44;98349.63;5074124;28;20295;-69
2022/07/03 06:53:40;;;;;;;3.10;1.87;;;;;;;21.55;67.81;98350.59;5074652;28;20295;-68
2022/07/03 06:56:07;;;;;;;2.70;2.20;;;;;;;21.64;68.93;98354.31;5073939;28;20209;-68
2022/07/03 06:58:33;;;;;;;2.60;1.77;;;;;;;21.71;68.53;98349.44;5074050;28;20317;-68
2022/07/03 07:01:00;;;;;;;2.87;2.03;;;;;;;21.71;68.20;98352.13;5073983;28;20207;-68
2022/07/03 07:03:26;;;;;;;3.57;1.83;;;;;;;21.97;66.90;98345.44;5073702;28;20563;-68
2022/07/03 07:05:52;;;;;;;2.77;2.33;;;;;;;21.97;66.88;98351.63;5073706;28;20200;-68
2022/07/03 07:08:19;;;;;;;2.37;1.60;;;;;;;22.05;67.06;98352.91;5073447;28;20676;-68
2022/07/03 07:10:45;;;;;;;4.60;2.30;;;;;;;22.24;66.16;98354.63;5073618;28;20295;-68
2022/07/03 07:13:11;;;;;;;1.77;1.67;;;;;;;22.33;65.50;98352.09;5073852;28;20287;-68
2022/07/03 07:15:38;;;;;;;2.80;2.60;;;;;;;22.35;65.75;98363.47;5073459;28;20738;-68
2022/07/03 07:18:04;;;;;;;2.53;2.00;;;;;;;22.49;65.27;98356.28;5073572;28;20307;-68
2022/07/03 07:20:31;;;;;;;1.98;1.48;;;;;;;22.61;64.79;98351.28;5073551;28;20219;-69
2022/07/03 07:22:57;;;;;;;2.97;2.25;;;;;;;22.80;64.07;98350.22;5073318;28;20719;-68
2022/07/03 07:25:24;;;;;;;1.90;1.80;;;;;;;22.89;65.72;98353.09;5073718;28;20216;-68
2022/07/03 07:27:50;;;;;;;3.13;1.77;;;;;;;22.88;64.39;98351.50;5073672;28;20210;-68
2022/07/03 07:30:16;;;;;;;1.98;1.60;;;;;;;23.05;64.82;98352.59;5073700;28;20619;-68
2022/07/03 07:32:43;;;;;;;4.82;1.90;;;;;;;23.18;64.65;98353.78;5073903;28;20295;-68
2022/07/03 07:35:09;;;;;;;2.33;1.60;;;;;;;23.29;66.10;98352.59;5073064;28;20644;-68
2022/07/03 07:37:36;;;;;;;2.03;1.65;;;;;;;23.37;61.96;98357.34;5073310;28;20207;-68
2022/07/03 07:40:02;;;;;;;2.17;1.63;;;;;;;23.43;62.19;98356.19;5073329;28;20323;-68
2022/07/03 07:42:29;;;;;;;4.30;1.88;;;;;;;23.40;62.83;98367.63;5073459;28;20291;-68
2022/07/03 07:44:55;;;;;;;1.85;1.45;;;;;;;23.38;60.13;98358.97;5073185;28;20299;-68
2022/07/03 07:47:22;;;;;;;1.92;1.50;;;;;;;23.49;58.34;98363.97;5073237;28;20295;-69
2022/07/03 07:49:48;;;;;;;2.80;1.45;;;;;;;23.62;57.84;98359.69;5073262;28;20315;-69
2022/07/03 07:52:14;;;;;;;1.52;1.30;;;;;;;23.89;54.84;98355.19;5073163;28;20303;-68
2022/07/03 07:54:41;;;;;;;1.90;0.88;;;;;;;23.99;50.51;98362.34;5073159;28;20659;-68
2022/07/03 07:57:08;;;;;;;1.75;0.80;;;;;;;24.01;48.65;98360.16;5073063;28;20291;-68
2022/07/03 07:59:34;;;;;;;1.13;0.80;;;;;;;24.05;48.65;98355.72;5073147;28;20238;-68
2022/07/03 08:07:28;;;;;;;2.08;1.42;;;;;;;24.30;44.93;98352.56;5072769;28;20195;-68
2022/07/03 08:09:55;;;;;;;1.27;0.95;;;;;;;24.39;46.17;98345.34;5072857;28;20788;-68
2022/07/03 08:12:21;;;;;;;0.80;0.80;;;;;;;24.63;45.47;98344.06;5073229;28;20291;-68
2022/07/03 08:14:48;;;;;;;1.02;0.93;;;;;;;24.66;43.81;98329.88;5073760;28;20299;-68
2022/07/03 08:17:14;;;;;;;1.50;1.00;;;;;;;24.74;43.81;98331.88;5073028;28;20667;-68
2022/07/03 08:19:41;;;;;;;1.08;1.00;;;;;;;24.74;43.28;98347.41;5072695;28;20317;-68
2022/07/03 08:22:07;;;;;;;1.17;0.80;;;;;;;24.72;43.87;98344.97;5072642;28;20204;-68
2022/07/03 08:24:34;;;;;;;0.88;0.80;;;;;;;24.85;44.74;98337.91;5072919;28;20291;-67
2022/07/03 08:27:00;;;;;;;1.40;0.90;;;;;;;25.05;43.54;98337.50;5072583;28;20766;-68
2022/07/03 08:29:27;;;;;;;1.27;0.88;;;;;;;25.19;43.45;98341.78;5072816;28;20256;-68
2022/07/03 08:31:54;;;;;;;0.73;0.73;;;;;;;24.92;40.11;98338.31;5072676;28;20211;-69
2022/07/03 08:34:20;;;;;;;0.70;0.70;;;;;;;24.90;39.56;98337.81;5072606;28;20575;-68
2022/07/03 08:36:47;;;;;;;1.40;1.00;;;;;;;25.05;41.13;98338.28;5072974;28;20299;-68
2022/07/03 08:39:13;;;;;;;1.88;1.30;;;;;;;25.09;40.57;98336.56;5072550;28;20225;-68
2022/07/03 08:41:42;;;;;;;1.85;0.80;;;;;;;25.17;40.12;98338.56;5072751;28;20236;-68
2022/07/03 08:44:13;;;;;;;2.53;0.90;;;;;;;25.16;41.04;98333.44;5073298;28;20209;-68
2022/07/03 08:46:40;;;;;;;1.02;0.70;;;;;;;25.17;39.83;98329.59;5072763;28;20295;-68
2022/07/03 08:49:08;;;;;;;1.25;0.82;;;;;;;25.30;39.92;98328.78;5074269;28;20303;-68
2022/07/03 08:51:35;;;;;;;2.13;0.88;;;;;;;25.53;38.02;98320.34;5076028;28;20546;-68
2022/07/03 08:54:02;;;;;;;3.03;1.08;;;;;;;25.66;37.29;98324.94;5076416;28;20664;-68
2022/07/03 08:56:29;;;;;;;0.80;0.80;;;;;;;25.56;41.01;98330.59;5076348;28;20671;-68
2022/07/03 08:58:59;;;;;;;1.13;0.82;;;;;;;25.38;37.39;98336.22;5076134;28;20232;-68
2022/07/03 09:01:26;;;;;;;0.75;0.75;;;;;;;25.40;38.97;98317.66;5076750;28;20251;-68
2022/07/03 09:03:53;;;;;;;0.68;0.68;;;;;;;25.55;40.02;98323.56;5075739;28;20287;-69
2022/07/03 09:06:20;;;;;;;2.90;0.93;;;;;;;25.55;39.50;98326.28;5075891;28;20201;-68
2022/07/03 09:08:46;;;;;;;2.92;1.05;;;;;;;25.61;38.81;98326.97;5075862;28;20221;-68
2022/07/03 09:11:14;;;;;;;0.90;0.90;;;;;;;25.51;39.59;98327.22;5075943;28;20295;-68
2022/07/03 09:13:40;;;;;;;0.80;0.80;;;;;;;25.71;40.17;98326.72;5075819;28;20295;-68
2022/07/03 09:16:15;;;;;;;1.00;0.90;;;;;;;25.71;40.07;98324.00;5076052;28;20289;-69
2022/07/03 09:18:43;;;;;;;1.50;1.30;;;;;;;25.55;39.76;98322.75;5075940;28;20327;-68
2022/07/03 09:21:10;;;;;;;2.15;0.90;;;;;;;25.53;39.61;98324.97;5075789;28;20299;-68
2022/07/03 09:23:42;;;;;;;1.23;0.98;;;;;;;25.74;37.73;98323.38;5075364;28;20204;-69
2022/07/03 09:26:14;;;;;;;0.88;0.88;;;;;;;25.66;37.16;98322.22;5075755;28;20283;-69
2022/07/03 09:28:55;;;;;;;1.58;0.80;;;;;;;26.00;38.17;98321.63;5075743;28;20338;-68
2022/07/03 09:31:28;;;;;;;0.85;0.85;;;;;;;26.11;36.54;98323.81;5075723;28;20319;-68
2022/07/03 09:34:07;;;;;;;0.93;0.90;;;;;;;26.23;37.33;98315.06;5075591;28;20219;-68
2022/07/03 09:36:41;;;;;;;1.38;0.90;;;;;;;26.19;36.95;98319.53;5075608;28;20188;-69
2022/07/03 09:39:34;;;;;;;2.45;0.82;;;;;;;26.37;38.34;98321.22;5075108;28;20324;-68
2022/07/03 09:42:01;;;;;;;0.68;0.65;;;;;;;25.98;36.98;98319.25;5075316;28;20235;-68
2022/07/03 09:44:37;;;;;;;0.90;0.90;;;;;;;26.19;37.41;98314.06;5075379;28;20231;-68
2022/07/03 09:47:22;;;;;;;1.15;0.70;;;;;;;26.11;36.22;98310.19;5075293;28;20216;-68
2022/07/03 09:49:55;;;;;;;1.75;0.90;;;;;;;26.23;37.30;98310.38;5075220;28;20307;-68
2022/07/03 09:52:35;;;;;;;2.17;0.90;;;;;;;26.58;37.96;98314.09;5074984;28;20736;-68
2022/07/03 09:55:10;;;;;;;1.65;0.80;;;;;;;26.54;35.98;98319.34;5075850;28;20295;-68
2022/07/03 09:57:39;;;;;;;0.73;0.73;;;;;;;26.45;37.49;98313.06;5076286;28;20300;-68
2022/07/03 10:00:14;;;;;;;1.05;1.00;;;;;;;26.78;37.58;98308.84;5074600;28;20240;-67
2022/07/03 10:03:00;;;;;;;0.68;0.68;;;;;;;26.68;36.54;98305.63;5075079;28;20272;-69
2022/07/03 10:05:32;;;;;;;0.80;0.80;;;;;;;26.81;37.37;98304.69;5074885;28;20203;-69
2022/07/03 10:08:00;;;;;;;1.58;0.80;;;;;;;27.01;37.48;98313.06;5075494;28;20299;-68
2022/07/03 10:10:29;;;;;;;0.80;0.80;;;;;;;26.67;36.24;98312.19;5074073;28;20672;-70
2022/07/03 10:12:57;;;;;;;1.05;1.00;;;;;;;27.10;37.15;98310.38;5074751;28;20208;-70
2022/07/03 10:15:25;;;;;;;1.35;0.77;;;;;;;27.23;37.25;98301.28;5074682;28;20295;-70
2022/07/03 10:17:54;;;;;;;1.17;0.93;;;;;;;27.08;36.38;98304.41;5074334;28;20205;-70
2022/07/03 10:20:30;;;;;;;1.08;0.90;;;;;;;27.12;37.13;98305.38;5074692;28;20274;-69
2022/07/03 10:22:57;;;;;;;1.00;1.00;;;;;;;27.15;36.48;98310.22;5074765;28;20215;-69
2022/07/03 10:25:24;;;;;;;1.27;0.80;;;;;;;27.25;37.37;98303.66;5074449;28;20219;-69
2022/07/03 10:27:51;;;;;;;0.80;0.80;;;;;;;27.05;37.43;98305.06;5074306;28;20693;-70
2022/07/03 10:30:22;;;;;;;0.95;0.95;;;;;;;27.27;36.91;98295.97;5074246;28;20685;-69
2022/07/03 10:32:53;;;;;;;1.60;0.80;;;;;;;27.26;37.16;98300.59;5074522;28;20193;-70
2022/07/03 10:35:29;;;;;;;1.48;0.77;;;;;;;27.39;37.40;98301.59;5074529;28;20220;-70
2022/07/03 10:38:01;;;;;;;0.80;0.80;;;;;;;26.94;35.85;98307.28;5073957;28;20287;-70
2022/07/03 10:46:24;;;;;;;1.48;1.02;;;;;;;27.45;37.02;98295.63;5074261;28;20554;-70
2022/07/03 10:49:07;;;;;;;0.70;0.70;;;;;;;27.40;36.87;98289.53;5073596;28;20771;-70
2022/07/03 10:51:46;;;;;;;1.05;0.95;;;;;;;27.23;35.95;98292.25;5073811;28;20185;-70
2022/07/03 10:54:14;;;;;;;1.95;1.85;;;;;;;27.23;37.13;98290.34;5073939;28;20638;-70
2022/07/03 10:56:59;;;;;;;0.98;0.98;;;;;;;27.39;35.98;98288.72;5073726;28;20258;-70
2022/07/03 10:59:37;;;;;;;1.45;0.90;;;;;;;27.69;34.93;98285.03;5073445;28;20370;-70
2022/07/03 11:02:37;;;;;;;1.33;1.05;;;;;;;27.13;36.33;98283.25;5073611;28;20299;-70
2022/07/03 11:05:05;;;;;;;1.15;1.05;;;;;;;27.22;36.57;98291.44;5073684;28;20631;-71
2022/07/03 11:07:34;;;;;;;1.88;0.90;;;;;;;27.27;37.47;98285.84;5073807;28;20239;-70
2022/07/03 11:10:10;;;;;;;1.10;1.10;;;;;;;27.75;37.60;98275.53;5073516;28;20311;-70
2022/07/03 11:12:55;;;;;;;0.88;0.88;;;;;;;28.04;34.03;98264.72;5073537;28;20212;-70
2022/07/03 11:15:27;;;;;;;0.80;0.80;;;;;;;27.61;36.19;98274.09;5073292;28;20673;-70
2022/07/03 11:18:06;;;;;;;1.10;1.00;;;;;;;27.46;35.79;98275.41;5073092;28;20211;-70
2022/07/03 11:20:46;;;;;;;1.55;0.93;;;;;;;27.85;36.35;98269.75;5073389;28;20642;-70
2022/07/03 11:23:28;;;;;;;1.65;1.00;;;;;;;27.90;36.26;98258.63;5072847;28;20268;-69
2022/07/03 11:25:56;;;;;;;2.85;1.00;;;;;;;27.75;35.23;98270.06;5073328;28;20555;-70
2022/07/03 11:28:34;;;;;;;1.10;1.10;;;;;;;27.62;36.20;98262.06;5073438;28;20636;-70
2022/07/03 11:31:10;;;;;;;0.80;0.80;;;;;;;27.64;35.81;98255.16;5073414;28;20200;-70
2022/07/03 11:33:54;;;;;;;0.80;0.80;;;;;;;27.51;36.90;98247.13;5073499;28;20261;-70
2022/07/03 11:36:26;;;;;;;2.15;0.80;;;;;;;27.71;35.88;98246.44;5073533;28;20212;-70
2022/07/03 11:38:55;;;;;;;1.15;1.15;;;;;;;27.80;36.21;98249.97;5073191;28;20227;-70
2022/07/03 11:41:23;;;;;;;1.13;1.08;;;;;;;27.95;35.91;98250.28;5073144;28;20298;-70
2022/07/03 11:43:51;;;;;;;2.35;1.10;;;;;;;28.13;34.61;98253.75;5073009;28;20205;-70
2022/07/03 11:46:25;;;;;;;2.65;0.90;;;;;;;27.95;36.03;98244.00;5073307;28;20255;-70
2022/07/03 11:49:12;;;;;;;1.27;1.00;;;;;;;28.01;36.75;98240.75;5073154;28;20224;-70
2022/07/03 11:51:41;;;;;;;1.45;0.90;;;;;;;28.03;35.42;98237.72;5073359;28;20189;-70
2022/07/03 11:54:07;;;;;;;1.17;1.00;;;;;;;28.27;34.98;98230.53;5073322;28;20208;-70
2022/07/03 11:56:36;;;;;;;1.50;1.02;;;;;;;28.01;35.46;98238.03;5073019;28;20763;-70
2022/07/03 11:59:05;;;;;;;0.70;0.70;;;;;;;28.35;37.20;98234.34;5073085;28;20576;-70
2022/07/03 12:01:37;;;;;;;1.13;1.02;;;;;;;28.52;35.97;98226.09;5072883;28;20273;-70
2022/07/03 12:04:06;;;;;;;3.95;1.10;;;;;;;28.32;35.73;98224.88;5073449;28;20189;-70